sensor_id;sensor_type;location;lat;lon;timestamp;P1;durP1;ratioP1;P2;durP2;ratioP2
50968;SDS011;36982;51.474;7.228;2023-08-06T00:01:28;4.47;;;3.20;;
50968;SDS011;36982;51.474;7.228;2023-08-06T00:03:54;3.50;;;3.20;;
50968;SDS011;36982;51.474;7.228;2023-08-06T00:06:19;3.40;;;3.00;;
50968;SDS011;36982;51.474;7.228;2023-08-06T00:08:45;5.07;;;3.50;;
50968;SDS011;36982;51.474;7.228;2023-08-06T00:11:11;4.37;;;3.40;;
50968;SDS011;36982;51.474;7.228;2023-08-06T00:13:37;6.57;;;3.70;;
50968;SDS011;36982;51.474;7.228;2023-08-06T00:16:10;6.00;;;3.20;;
50968;SDS011;36982;51.474;7.228;2023-08-06T00:18:37;7.03;;;3.80;;
50968;SDS011;36982;51.474;7.228;2023-08-06T00:21:03;3.57;;;2.90;;
50968;SDS011;36982;51.474;7.228;2023-08-06T00:23:29;3.40;;;3.07;;
50968;SDS011;36982;51.474;7.228;2023-08-06T00:25:54;5.07;;;2.93;;
50968;SDS011;36982;51.474;7.228;2023-08-06T00:28:20;4.63;;;3.23;;
50968;SDS011;36982;51.474;7.228;2023-08-06T00:30:45;4.70;;;3.00;;
50968;SDS011;36982;51.474;7.228;2023-08-06T00:33:11;5.80;;;2.70;;
50968;SDS011;36982;51.474;7.228;2023-08-06T00:35:36;6.70;;;3.10;;
50968;SDS011;36982;51.474;7.228;2023-08-06T00:38:02;5.07;;;3.20;;
50968;SDS011;36982;51.474;7.228;2023-08-06T00:40:28;5.40;;;3.57;;
50968;SDS011;36982;51.474;7.228;2023-08-06T00:42:55;4.87;;;3.20;;
50968;SDS011;36982;51.474;7.228;2023-08-06T00:45:21;5.03;;;3.50;;
50968;SDS011;36982;51.474;7.228;2023-08-06T00:47:47;3.87;;;3.13;;
50968;SDS011;36982;51.474;7.228;2023-08-06T00:50:13;3.50;;;3.17;;
50968;SDS011;36982;51.474;7.228;2023-08-06T00:52:38;4.20;;;3.00;;
50968;SDS011;36982;51.474;7.228;2023-08-06T00:55:05;4.17;;;2.80;;
50968;SDS011;36982;51.474;7.228;2023-08-06T00:57:31;5.77;;;3.20;;
50968;SDS011;36982;51.474;7.228;2023-08-06T00:59:57;3.53;;;3.00;;
50968;SDS011;36982;51.474;7.228;2023-08-06T01:02:23;3.43;;;2.80;;
50968;SDS011;36982;51.474;7.228;2023-08-06T01:04:48;5.03;;;2.93;;
50968;SDS011;36982;51.474;7.228;2023-08-06T01:15:49;3.87;;;3.07;;
50968;SDS011;36982;51.474;7.228;2023-08-06T01:18:19;7.10;;;3.20;;
50968;SDS011;36982;51.474;7.228;2023-08-06T01:20:45;7.20;;;3.13;;
50968;SDS011;36982;51.474;7.228;2023-08-06T01:23:10;7.37;;;3.00;;
50968;SDS011;36982;51.474;7.228;2023-08-06T01:25:40;4.77;;;3.23;;
50968;SDS011;36982;51.474;7.228;2023-08-06T01:31:27;6.43;;;3.47;;
50968;SDS011;36982;51.474;7.228;2023-08-06T01:33:57;3.20;;;2.90;;
50968;SDS011;36982;51.474;7.228;2023-08-06T01:36:24;3.40;;;3.00;;
50968;SDS011;36982;51.474;7.228;2023-08-06T01:38:51;5.20;;;3.07;;
50968;SDS011;36982;51.474;7.228;2023-08-06T01:41:17;5.23;;;3.20;;
50968;SDS011;36982;51.474;7.228;2023-08-06T01:43:43;3.87;;;2.90;;
50968;SDS011;36982;51.474;7.228;2023-08-06T01:46:09;4.00;;;3.60;;
50968;SDS011;36982;51.474;7.228;2023-08-06T01:48:34;4.50;;;3.30;;
50968;SDS011;36982;51.474;7.228;2023-08-06T01:51:00;5.27;;;3.47;;
50968;SDS011;36982;51.474;7.228;2023-08-06T01:53:28;3.83;;;3.20;;
50968;SDS011;36982;51.474;7.228;2023-08-06T01:55:54;4.73;;;3.30;;
50968;SDS011;36982;51.474;7.228;2023-08-06T01:58:19;3.50;;;3.20;;
50968;SDS011;36982;51.474;7.228;2023-08-06T02:00:45;4.97;;;4.07;;
50968;SDS011;36982;51.474;7.228;2023-08-06T02:03:10;6.13;;;4.40;;
50968;SDS011;36982;51.474;7.228;2023-08-06T02:05:36;5.33;;;3.90;;
50968;SDS011;36982;51.474;7.228;2023-08-06T02:08:01;5.03;;;3.40;;
50968;SDS011;36982;51.474;7.228;2023-08-06T02:10:27;5.10;;;3.90;;
50968;SDS011;36982;51.474;7.228;2023-08-06T02:12:53;4.17;;;3.50;;
50968;SDS011;36982;51.474;7.228;2023-08-06T02:15:18;4.97;;;3.70;;
50968;SDS011;36982;51.474;7.228;2023-08-06T02:17:44;4.67;;;3.60;;
50968;SDS011;36982;51.474;7.228;2023-08-06T02:20:09;4.03;;;3.10;;
50968;SDS011;36982;51.474;7.228;2023-08-06T02:22:35;3.47;;;2.70;;
50968;SDS011;36982;51.474;7.228;2023-08-06T02:25:00;4.20;;;3.00;;
50968;SDS011;36982;51.474;7.228;2023-08-06T02:27:26;5.10;;;2.90;;
50968;SDS011;36982;51.474;7.228;2023-08-06T02:29:52;3.70;;;3.07;;
50968;SDS011;36982;51.474;7.228;2023-08-06T02:32:17;4.27;;;3.20;;
50968;SDS011;36982;51.474;7.228;2023-08-06T02:34:43;5.37;;;3.47;;
50968;SDS011;36982;51.474;7.228;2023-08-06T02:37:08;3.37;;;3.00;;
50968;SDS011;36982;51.474;7.228;2023-08-06T02:39:34;3.80;;;3.00;;
50968;SDS011;36982;51.474;7.228;2023-08-06T02:42:00;4.53;;;3.20;;
50968;SDS011;36982;51.474;7.228;2023-08-06T02:44:29;4.30;;;2.67;;
50968;SDS011;36982;51.474;7.228;2023-08-06T02:46:54;5.30;;;3.10;;
50968;SDS011;36982;51.474;7.228;2023-08-06T02:49:20;5.87;;;3.03;;
50968;SDS011;36982;51.474;7.228;2023-08-06T02:51:46;5.27;;;3.30;;
50968;SDS011;36982;51.474;7.228;2023-08-06T02:54:11;3.73;;;3.20;;
50968;SDS011;36982;51.474;7.228;2023-08-06T02:56:37;4.13;;;3.27;;
50968;SDS011;36982;51.474;7.228;2023-08-06T02:59:03;3.63;;;3.00;;
50968;SDS011;36982;51.474;7.228;2023-08-06T03:01:28;4.23;;;3.00;;
50968;SDS011;36982;51.474;7.228;2023-08-06T03:03:54;3.93;;;3.20;;
50968;SDS011;36982;51.474;7.228;2023-08-06T03:06:20;4.37;;;2.77;;
50968;SDS011;36982;51.474;7.228;2023-08-06T03:08:45;5.20;;;3.47;;
50968;SDS011;36982;51.474;7.228;2023-08-06T03:11:11;5.37;;;3.43;;
50968;SDS011;36982;51.474;7.228;2023-08-06T03:13:36;4.47;;;3.50;;
50968;SDS011;36982;51.474;7.228;2023-08-06T03:16:02;4.70;;;3.43;;
50968;SDS011;36982;51.474;7.228;2023-08-06T03:18:28;7.93;;;4.80;;
50968;SDS011;36982;51.474;7.228;2023-08-06T03:20:53;4.50;;;3.60;;
50968;SDS011;36982;51.474;7.228;2023-08-06T03:23:19;4.30;;;3.47;;
50968;SDS011;36982;51.474;7.228;2023-08-06T03:25:45;3.33;;;3.03;;
50968;SDS011;36982;51.474;7.228;2023-08-06T03:28:11;3.13;;;2.80;;
50968;SDS011;36982;51.474;7.228;2023-08-06T03:30:37;5.10;;;3.40;;
50968;SDS011;36982;51.474;7.228;2023-08-06T03:33:03;4.23;;;3.50;;
50968;SDS011;36982;51.474;7.228;2023-08-06T03:35:29;4.70;;;3.10;;
50968;SDS011;36982;51.474;7.228;2023-08-06T03:37:54;3.47;;;3.10;;
50968;SDS011;36982;51.474;7.228;2023-08-06T03:40:20;4.47;;;3.40;;
50968;SDS011;36982;51.474;7.228;2023-08-06T03:42:45;3.47;;;3.13;;
50968;SDS011;36982;51.474;7.228;2023-08-06T03:45:11;3.13;;;2.73;;
50968;SDS011;36982;51.474;7.228;2023-08-06T03:47:37;7.53;;;3.20;;
50968;SDS011;36982;51.474;7.228;2023-08-06T03:50:02;5.17;;;3.83;;
50968;SDS011;36982;51.474;7.228;2023-08-06T03:52:28;5.23;;;3.37;;
50968;SDS011;36982;51.474;7.228;2023-08-06T03:54:53;5.10;;;4.07;;
50968;SDS011;36982;51.474;7.228;2023-08-06T03:57:19;3.70;;;2.93;;
50968;SDS011;36982;51.474;7.228;2023-08-06T03:59:45;6.50;;;2.97;;
50968;SDS011;36982;51.474;7.228;2023-08-06T04:02:10;7.03;;;5.63;;
50968;SDS011;36982;51.474;7.228;2023-08-06T04:04:36;5.07;;;4.00;;
50968;SDS011;36982;51.474;7.228;2023-08-06T04:07:01;8.73;;;4.40;;
50968;SDS011;36982;51.474;7.228;2023-08-06T04:09:28;5.00;;;3.37;;
50968;SDS011;36982;51.474;7.228;2023-08-06T04:11:54;4.27;;;2.90;;
50968;SDS011;36982;51.474;7.228;2023-08-06T04:14:19;3.97;;;3.50;;
50968;SDS011;36982;51.474;7.228;2023-08-06T04:16:45;3.60;;;2.60;;
50968;SDS011;36982;51.474;7.228;2023-08-06T04:19:11;4.23;;;2.57;;
50968;SDS011;36982;51.474;7.228;2023-08-06T04:21:36;3.87;;;3.33;;
50968;SDS011;36982;51.474;7.228;2023-08-06T04:24:02;4.80;;;2.80;;
50968;SDS011;36982;51.474;7.228;2023-08-06T04:26:27;4.60;;;3.00;;
50968;SDS011;36982;51.474;7.228;2023-08-06T04:28:53;3.17;;;2.63;;
50968;SDS011;36982;51.474;7.228;2023-08-06T04:31:19;3.50;;;3.03;;
50968;SDS011;36982;51.474;7.228;2023-08-06T04:33:44;3.00;;;2.17;;
50968;SDS011;36982;51.474;7.228;2023-08-06T04:36:10;3.67;;;2.67;;
50968;SDS011;36982;51.474;7.228;2023-08-06T04:38:36;2.57;;;2.37;;
50968;SDS011;36982;51.474;7.228;2023-08-06T04:41:02;4.23;;;2.30;;
50968;SDS011;36982;51.474;7.228;2023-08-06T04:43:31;6.87;;;3.90;;
50968;SDS011;36982;51.474;7.228;2023-08-06T04:45:56;7.47;;;4.87;;
50968;SDS011;36982;51.474;7.228;2023-08-06T04:48:22;8.43;;;4.50;;
50968;SDS011;36982;51.474;7.228;2023-08-06T04:50:48;6.63;;;3.90;;
50968;SDS011;36982;51.474;7.228;2023-08-06T04:53:15;8.97;;;4.07;;
50968;SDS011;36982;51.474;7.228;2023-08-06T04:55:41;4.47;;;2.73;;
50968;SDS011;36982;51.474;7.228;2023-08-06T04:58:08;6.27;;;2.70;;
50968;SDS011;36982;51.474;7.228;2023-08-06T05:00:34;4.63;;;2.37;;
50968;SDS011;36982;51.474;7.228;2023-08-06T05:03:00;3.80;;;2.20;;
50968;SDS011;36982;51.474;7.228;2023-08-06T05:05:26;3.53;;;2.40;;
50968;SDS011;36982;51.474;7.228;2023-08-06T05:07:54;3.70;;;2.13;;
50968;SDS011;36982;51.474;7.228;2023-08-06T05:10:21;5.00;;;2.47;;
50968;SDS011;36982;51.474;7.228;2023-08-06T05:12:47;3.50;;;2.50;;
50968;SDS011;36982;51.474;7.228;2023-08-06T05:15:12;4.97;;;2.40;;
50968;SDS011;36982;51.474;7.228;2023-08-06T05:17:38;5.00;;;2.40;;
50968;SDS011;36982;51.474;7.228;2023-08-06T05:20:03;2.70;;;2.20;;
50968;SDS011;36982;51.474;7.228;2023-08-06T05:22:29;3.97;;;2.20;;
50968;SDS011;36982;51.474;7.228;2023-08-06T05:24:55;3.70;;;2.20;;
50968;SDS011;36982;51.474;7.228;2023-08-06T05:27:20;2.40;;;2.10;;
50968;SDS011;36982;51.474;7.228;2023-08-06T05:29:47;2.97;;;2.47;;
50968;SDS011;36982;51.474;7.228;2023-08-06T05:32:13;4.67;;;2.20;;
50968;SDS011;36982;51.474;7.228;2023-08-06T05:34:38;4.10;;;2.40;;
50968;SDS011;36982;51.474;7.228;2023-08-06T05:37:04;3.13;;;2.47;;
50968;SDS011;36982;51.474;7.228;2023-08-06T05:39:30;4.13;;;2.00;;
50968;SDS011;36982;51.474;7.228;2023-08-06T05:41:55;4.17;;;2.20;;
50968;SDS011;36982;51.474;7.228;2023-08-06T05:44:21;4.32;;;2.25;;
50968;SDS011;36982;51.474;7.228;2023-08-06T05:46:48;2.27;;;1.87;;
50968;SDS011;36982;51.474;7.228;2023-08-06T05:49:14;3.35;;;1.98;;
50968;SDS011;36982;51.474;7.228;2023-08-06T05:51:40;2.78;;;1.92;;
50968;SDS011;36982;51.474;7.228;2023-08-06T05:54:06;3.05;;;1.60;;
50968;SDS011;36982;51.474;7.228;2023-08-06T05:56:32;2.58;;;1.48;;
50968;SDS011;36982;51.474;7.228;2023-08-06T05:58:57;2.10;;;1.80;;
50968;SDS011;36982;51.474;7.228;2023-08-06T06:01:23;2.78;;;1.70;;
50968;SDS011;36982;51.474;7.228;2023-08-06T06:03:48;2.20;;;1.50;;
50968;SDS011;36982;51.474;7.228;2023-08-06T06:06:14;2.22;;;1.75;;
50968;SDS011;36982;51.474;7.228;2023-08-06T06:08:39;4.50;;;1.80;;
50968;SDS011;36982;51.474;7.228;2023-08-06T06:11:05;3.08;;;1.77;;
50968;SDS011;36982;51.474;7.228;2023-08-06T06:13:30;3.53;;;1.98;;
50968;SDS011;36982;51.474;7.228;2023-08-06T06:15:56;3.92;;;2.22;;
50968;SDS011;36982;51.474;7.228;2023-08-06T06:18:22;2.28;;;1.60;;
50968;SDS011;36982;51.474;7.228;2023-08-06T06:20:47;2.35;;;1.62;;
50968;SDS011;36982;51.474;7.228;2023-08-06T06:23:13;2.80;;;2.10;;
50968;SDS011;36982;51.474;7.228;2023-08-06T06:25:49;3.05;;;1.80;;
50968;SDS011;36982;51.474;7.228;2023-08-06T06:28:18;4.85;;;1.95;;
50968;SDS011;36982;51.474;7.228;2023-08-06T06:30:43;4.15;;;2.92;;
50968;SDS011;36982;51.474;7.228;2023-08-06T06:33:09;3.58;;;2.05;;
50968;SDS011;36982;51.474;7.228;2023-08-06T06:35:35;2.12;;;1.60;;
50968;SDS011;36982;51.474;7.228;2023-08-06T06:38:00;3.05;;;1.92;;
50968;SDS011;36982;51.474;7.228;2023-08-06T06:40:26;3.40;;;2.00;;
50968;SDS011;36982;51.474;7.228;2023-08-06T06:42:51;2.30;;;1.73;;
50968;SDS011;36982;51.474;7.228;2023-08-06T06:45:17;3.55;;;1.92;;
50968;SDS011;36982;51.474;7.228;2023-08-06T06:47:43;2.50;;;1.77;;
50968;SDS011;36982;51.474;7.228;2023-08-06T06:50:08;4.35;;;2.15;;
50968;SDS011;36982;51.474;7.228;2023-08-06T06:52:34;4.30;;;2.20;;
50968;SDS011;36982;51.474;7.228;2023-08-06T06:55:00;3.28;;;1.90;;
50968;SDS011;36982;51.474;7.228;2023-08-06T06:57:25;2.45;;;1.80;;
50968;SDS011;36982;51.474;7.228;2023-08-06T06:59:51;3.62;;;2.20;;
50968;SDS011;36982;51.474;7.228;2023-08-06T07:02:16;3.20;;;1.90;;
50968;SDS011;36982;51.474;7.228;2023-08-06T07:04:42;3.55;;;1.92;;
50968;SDS011;36982;51.474;7.228;2023-08-06T07:07:07;2.90;;;2.00;;
50968;SDS011;36982;51.474;7.228;2023-08-06T07:09:33;2.33;;;1.90;;
50968;SDS011;36982;51.474;7.228;2023-08-06T07:11:59;2.00;;;1.58;;
50968;SDS011;36982;51.474;7.228;2023-08-06T07:14:25;2.37;;;1.87;;
50968;SDS011;36982;51.474;7.228;2023-08-06T07:16:51;5.20;;;2.12;;
50968;SDS011;36982;51.474;7.228;2023-08-06T07:19:16;2.65;;;1.55;;
50968;SDS011;36982;51.474;7.228;2023-08-06T07:21:42;3.15;;;1.80;;
50968;SDS011;36982;51.474;7.228;2023-08-06T07:24:07;4.22;;;2.20;;
50968;SDS011;36982;51.474;7.228;2023-08-06T07:26:33;3.62;;;2.08;;
50968;SDS011;36982;51.474;7.228;2023-08-06T07:28:58;3.20;;;1.70;;
50968;SDS011;36982;51.474;7.228;2023-08-06T07:31:24;2.35;;;1.62;;
50968;SDS011;36982;51.474;7.228;2023-08-06T07:33:50;2.83;;;1.60;;
50968;SDS011;36982;51.474;7.228;2023-08-06T07:36:16;3.05;;;1.80;;
50968;SDS011;36982;51.474;7.228;2023-08-06T07:38:41;3.10;;;1.60;;
50968;SDS011;36982;51.474;7.228;2023-08-06T07:41:08;2.58;;;1.70;;
50968;SDS011;36982;51.474;7.228;2023-08-06T07:43:34;2.35;;;1.65;;
50968;SDS011;36982;51.474;7.228;2023-08-06T07:46:00;2.40;;;1.70;;
50968;SDS011;36982;51.474;7.228;2023-08-06T07:48:27;1.73;;;1.58;;
50968;SDS011;36982;51.474;7.228;2023-08-06T07:50:53;3.95;;;1.50;;
50968;SDS011;36982;51.474;7.228;2023-08-06T07:53:20;2.22;;;1.80;;
50968;SDS011;36982;51.474;7.228;2023-08-06T07:55:50;3.53;;;1.90;;
50968;SDS011;36982;51.474;7.228;2023-08-06T07:58:16;2.37;;;1.75;;
50968;SDS011;36982;51.474;7.228;2023-08-06T08:00:42;4.18;;;2.00;;
50968;SDS011;36982;51.474;7.228;2023-08-06T08:03:10;2.28;;;1.65;;
50968;SDS011;36982;51.474;7.228;2023-08-06T08:05:39;2.05;;;1.52;;
50968;SDS011;36982;51.474;7.228;2023-08-06T08:08:05;3.80;;;1.70;;
50968;SDS011;36982;51.474;7.228;2023-08-06T08:10:31;2.95;;;1.85;;
50968;SDS011;36982;51.474;7.228;2023-08-06T08:12:57;2.80;;;1.60;;
50968;SDS011;36982;51.474;7.228;2023-08-06T08:15:24;4.62;;;1.70;;
50968;SDS011;36982;51.474;7.228;2023-08-06T08:17:51;3.05;;;1.77;;
50968;SDS011;36982;51.474;7.228;2023-08-06T08:20:17;2.87;;;1.90;;
50968;SDS011;36982;51.474;7.228;2023-08-06T08:22:43;3.60;;;2.10;;
50968;SDS011;36982;51.474;7.228;2023-08-06T08:25:08;3.95;;;2.10;;
50968;SDS011;36982;51.474;7.228;2023-08-06T08:27:34;3.55;;;1.77;;
50968;SDS011;36982;51.474;7.228;2023-08-06T08:29:59;3.37;;;1.80;;
50968;SDS011;36982;51.474;7.228;2023-08-06T08:32:25;2.60;;;1.95;;
50968;SDS011;36982;51.474;7.228;2023-08-06T08:34:50;3.40;;;2.05;;
50968;SDS011;36982;51.474;7.228;2023-08-06T08:37:16;3.53;;;1.75;;
50968;SDS011;36982;51.474;7.228;2023-08-06T08:39:41;2.92;;;1.92;;
50968;SDS011;36982;51.474;7.228;2023-08-06T08:42:07;1.75;;;1.27;;
50968;SDS011;36982;51.474;7.228;2023-08-06T08:44:34;2.55;;;1.60;;
50968;SDS011;36982;51.474;7.228;2023-08-06T08:47:04;2.28;;;1.60;;
50968;SDS011;36982;51.474;7.228;2023-08-06T08:49:36;2.05;;;1.50;;
50968;SDS011;36982;51.474;7.228;2023-08-06T08:52:02;2.15;;;1.60;;
50968;SDS011;36982;51.474;7.228;2023-08-06T08:54:31;3.22;;;2.42;;
50968;SDS011;36982;51.474;7.228;2023-08-06T08:56:58;1.77;;;1.50;;
50968;SDS011;36982;51.474;7.228;2023-08-06T08:59:23;3.37;;;2.20;;
50968;SDS011;36982;51.474;7.228;2023-08-06T09:01:49;2.53;;;2.10;;
50968;SDS011;36982;51.474;7.228;2023-08-06T09:04:16;5.50;;;2.50;;
50968;SDS011;36982;51.474;7.228;2023-08-06T09:06:42;2.55;;;1.90;;
50968;SDS011;36982;51.474;7.228;2023-08-06T09:09:12;3.25;;;2.10;;
50968;SDS011;36982;51.474;7.228;2023-08-06T09:11:42;5.12;;;1.95;;
50968;SDS011;36982;51.474;7.228;2023-08-06T09:14:08;3.45;;;1.60;;
50968;SDS011;36982;51.474;7.228;2023-08-06T09:16:35;1.70;;;1.60;;
50968;SDS011;36982;51.474;7.228;2023-08-06T09:19:15;4.18;;;1.80;;
50968;SDS011;36982;51.474;7.228;2023-08-06T09:21:42;2.95;;;2.10;;
50968;SDS011;36982;51.474;7.228;2023-08-06T09:24:12;2.37;;;2.00;;
50968;SDS011;36982;51.474;7.228;2023-08-06T09:26:42;3.83;;;2.80;;
50968;SDS011;36982;51.474;7.228;2023-08-06T09:29:09;3.60;;;3.10;;
50968;SDS011;36982;51.474;7.228;2023-08-06T09:34:17;3.55;;;2.28;;
50968;SDS011;36982;51.474;7.228;2023-08-06T09:36:48;2.83;;;2.50;;
50968;SDS011;36982;51.474;7.228;2023-08-06T09:39:16;3.17;;;2.85;;
50968;SDS011;36982;51.474;7.228;2023-08-06T09:41:43;4.32;;;3.20;;
50968;SDS011;36982;51.474;7.228;2023-08-06T09:44:16;4.85;;;3.30;;
50968;SDS011;36982;51.474;7.228;2023-08-06T09:46:43;4.15;;;3.37;;
50968;SDS011;36982;51.474;7.228;2023-08-06T09:49:16;3.67;;;2.92;;
50968;SDS011;36982;51.474;7.228;2023-08-06T09:51:43;4.50;;;2.90;;
50968;SDS011;36982;51.474;7.228;2023-08-06T09:54:09;5.15;;;2.90;;
50968;SDS011;36982;51.474;7.228;2023-08-06T09:56:37;4.28;;;3.37;;
50968;SDS011;36982;51.474;7.228;2023-08-06T09:59:06;3.67;;;3.25;;
50968;SDS011;36982;51.474;7.228;2023-08-06T10:01:33;4.75;;;3.10;;
50968;SDS011;36982;51.474;7.228;2023-08-06T10:04:00;4.25;;;3.53;;
50968;SDS011;36982;51.474;7.228;2023-08-06T10:06:28;4.85;;;3.62;;
50968;SDS011;36982;51.474;7.228;2023-08-06T10:08:54;4.90;;;4.18;;
50968;SDS011;36982;51.474;7.228;2023-08-06T10:11:21;5.00;;;3.85;;
50968;SDS011;36982;51.474;7.228;2023-08-06T10:13:50;4.45;;;3.92;;
50968;SDS011;36982;51.474;7.228;2023-08-06T10:16:19;3.67;;;3.37;;
50968;SDS011;36982;51.474;7.228;2023-08-06T10:18:46;5.28;;;3.92;;
50968;SDS011;36982;51.474;7.228;2023-08-06T10:21:13;3.67;;;3.33;;
50968;SDS011;36982;51.474;7.228;2023-08-06T10:23:40;4.30;;;3.90;;
50968;SDS011;36982;51.474;7.228;2023-08-06T10:26:06;5.32;;;3.67;;
50968;SDS011;36982;51.474;7.228;2023-08-06T10:28:36;4.28;;;3.00;;
50968;SDS011;36982;51.474;7.228;2023-08-06T10:31:03;3.22;;;2.47;;
50968;SDS011;36982;51.474;7.228;2023-08-06T10:33:50;4.40;;;2.80;;
50968;SDS011;36982;51.474;7.228;2023-08-06T10:36:15;4.57;;;2.83;;
50968;SDS011;36982;51.474;7.228;2023-08-06T10:38:44;6.18;;;3.55;;
50968;SDS011;36982;51.474;7.228;2023-08-06T10:41:15;3.70;;;3.08;;
50968;SDS011;36982;51.474;7.228;2023-08-06T10:43:43;3.90;;;3.50;;
50968;SDS011;36982;51.474;7.228;2023-08-06T10:46:21;4.53;;;3.70;;
50968;SDS011;36982;51.474;7.228;2023-08-06T10:48:48;5.78;;;4.22;;
50968;SDS011;36982;51.474;7.228;2023-08-06T10:51:14;6.93;;;5.80;;
50968;SDS011;36982;51.474;7.228;2023-08-06T10:53:43;3.42;;;3.05;;
50968;SDS011;36982;51.474;7.228;2023-08-06T10:58:42;3.97;;;3.15;;
50968;SDS011;36982;51.474;7.228;2023-08-06T11:01:09;3.50;;;3.00;;
50968;SDS011;36982;51.474;7.228;2023-08-06T11:03:35;3.53;;;2.75;;
50968;SDS011;36982;51.474;7.228;2023-08-06T11:06:01;3.70;;;3.40;;
50968;SDS011;36982;51.474;7.228;2023-08-06T11:08:28;3.95;;;3.22;;
50968;SDS011;36982;51.474;7.228;2023-08-06T11:10:54;4.20;;;3.80;;
50968;SDS011;36982;51.474;7.228;2023-08-06T11:13:20;4.78;;;3.70;;
50968;SDS011;36982;51.474;7.228;2023-08-06T11:15:46;3.45;;;3.15;;
50968;SDS011;36982;51.474;7.228;2023-08-06T11:18:12;3.50;;;3.20;;
50968;SDS011;36982;51.474;7.228;2023-08-06T11:20:38;5.32;;;3.60;;
50968;SDS011;36982;51.474;7.228;2023-08-06T11:23:04;3.22;;;2.92;;
50968;SDS011;36982;51.474;7.228;2023-08-06T11:25:30;5.20;;;4.53;;
50968;SDS011;36982;51.474;7.228;2023-08-06T11:28:00;3.45;;;2.87;;
50968;SDS011;36982;51.474;7.228;2023-08-06T11:30:26;3.90;;;3.47;;
50968;SDS011;36982;51.474;7.228;2023-08-06T11:32:52;3.53;;;3.03;;
50968;SDS011;36982;51.474;7.228;2023-08-06T11:35:17;3.75;;;3.30;;
50968;SDS011;36982;51.474;7.228;2023-08-06T11:37:43;3.90;;;3.50;;
50968;SDS011;36982;51.474;7.228;2023-08-06T11:40:13;4.30;;;3.35;;
50968;SDS011;36982;51.474;7.228;2023-08-06T11:42:40;4.50;;;3.30;;
50968;SDS011;36982;51.474;7.228;2023-08-06T11:45:07;5.95;;;3.45;;
50968;SDS011;36982;51.474;7.228;2023-08-06T11:47:34;3.60;;;3.12;;
50968;SDS011;36982;51.474;7.228;2023-08-06T11:50:05;4.90;;;3.08;;
50968;SDS011;36982;51.474;7.228;2023-08-06T11:52:31;3.97;;;3.58;;
50968;SDS011;36982;51.474;7.228;2023-08-06T11:57:36;3.80;;;3.47;;
50968;SDS011;36982;51.474;7.228;2023-08-06T12:00:05;3.95;;;3.60;;
50968;SDS011;36982;51.474;7.228;2023-08-06T12:02:32;4.43;;;3.50;;
50968;SDS011;36982;51.474;7.228;2023-08-06T12:07:36;5.22;;;4.57;;
50968;SDS011;36982;51.474;7.228;2023-08-06T12:10:04;4.90;;;4.40;;
50968;SDS011;36982;51.474;7.228;2023-08-06T12:12:30;4.93;;;4.53;;
50968;SDS011;36982;51.474;7.228;2023-08-06T12:14:55;5.93;;;4.55;;
50968;SDS011;36982;51.474;7.228;2023-08-06T12:17:22;2.95;;;2.58;;
50968;SDS011;36982;51.474;7.228;2023-08-06T12:19:48;2.45;;;2.25;;
50968;SDS011;36982;51.474;7.228;2023-08-06T12:22:14;3.62;;;2.85;;
50968;SDS011;36982;51.474;7.228;2023-08-06T12:24:40;3.00;;;2.70;;
50968;SDS011;36982;51.474;7.228;2023-08-06T12:27:07;3.97;;;3.58;;
50968;SDS011;36982;51.474;7.228;2023-08-06T12:29:33;6.97;;;5.75;;
50968;SDS011;36982;51.474;7.228;2023-08-06T12:31:59;5.93;;;4.32;;
50968;SDS011;36982;51.474;7.228;2023-08-06T12:34:24;7.12;;;5.80;;
50968;SDS011;36982;51.474;7.228;2023-08-06T12:36:50;5.60;;;4.68;;
50968;SDS011;36982;51.474;7.228;2023-08-06T12:39:15;4.37;;;3.97;;
50968;SDS011;36982;51.474;7.228;2023-08-06T12:41:41;3.67;;;3.25;;
50968;SDS011;36982;51.474;7.228;2023-08-06T12:44:08;8.33;;;6.47;;
50968;SDS011;36982;51.474;7.228;2023-08-06T12:46:34;2.67;;;2.23;;
50968;SDS011;36982;51.474;7.228;2023-08-06T12:49:00;2.83;;;2.23;;
50968;SDS011;36982;51.474;7.228;2023-08-06T12:51:25;2.27;;;1.90;;
50968;SDS011;36982;51.474;7.228;2023-08-06T12:53:51;2.03;;;1.70;;
50968;SDS011;36982;51.474;7.228;2023-08-06T12:56:16;4.20;;;1.60;;
50968;SDS011;36982;51.474;7.228;2023-08-06T12:58:42;4.37;;;2.40;;
50968;SDS011;36982;51.474;7.228;2023-08-06T13:01:07;3.17;;;1.97;;
50968;SDS011;36982;51.474;7.228;2023-08-06T13:03:33;2.10;;;1.77;;
50968;SDS011;36982;51.474;7.228;2023-08-06T13:05:58;3.60;;;2.07;;
50968;SDS011;36982;51.474;7.228;2023-08-06T13:08:24;2.47;;;1.70;;
50968;SDS011;36982;51.474;7.228;2023-08-06T13:10:50;4.27;;;2.43;;
50968;SDS011;36982;51.474;7.228;2023-08-06T13:13:15;4.13;;;3.07;;
50968;SDS011;36982;51.474;7.228;2023-08-06T13:15:41;1.40;;;1.00;;
50968;SDS011;36982;51.474;7.228;2023-08-06T13:18:06;2.17;;;1.10;;
50968;SDS011;36982;51.474;7.228;2023-08-06T13:20:32;4.03;;;1.40;;
50968;SDS011;36982;51.474;7.228;2023-08-06T13:22:58;6.00;;;2.17;;
50968;SDS011;36982;51.474;7.228;2023-08-06T13:25:26;7.47;;;2.70;;
50968;SDS011;36982;51.474;7.228;2023-08-06T13:27:53;3.93;;;1.93;;
50968;SDS011;36982;51.474;7.228;2023-08-06T13:30:19;12.00;;;3.37;;
50968;SDS011;36982;51.474;7.228;2023-08-06T13:32:45;2.43;;;1.30;;
50968;SDS011;36982;51.474;7.228;2023-08-06T13:35:25;1.20;;;0.90;;
50968;SDS011;36982;51.474;7.228;2023-08-06T13:37:50;3.27;;;2.00;;
50968;SDS011;36982;51.474;7.228;2023-08-06T13:40:16;1.47;;;0.93;;
50968;SDS011;36982;51.474;7.228;2023-08-06T13:42:42;3.73;;;1.20;;
50968;SDS011;36982;51.474;7.228;2023-08-06T13:45:07;1.00;;;0.80;;
50968;SDS011;36982;51.474;7.228;2023-08-06T13:47:33;2.17;;;1.40;;
50968;SDS011;36982;51.474;7.228;2023-08-06T13:49:59;1.97;;;1.50;;
50968;SDS011;36982;51.474;7.228;2023-08-06T13:52:27;2.47;;;1.47;;
50968;SDS011;36982;51.474;7.228;2023-08-06T13:54:53;2.00;;;1.23;;
50968;SDS011;36982;51.474;7.228;2023-08-06T13:57:19;1.17;;;1.07;;
50968;SDS011;36982;51.474;7.228;2023-08-06T13:59:44;2.40;;;1.33;;
50968;SDS011;36982;51.474;7.228;2023-08-06T14:02:10;2.47;;;1.40;;
50968;SDS011;36982;51.474;7.228;2023-08-06T14:04:36;3.40;;;1.60;;
50968;SDS011;36982;51.474;7.228;2023-08-06T14:07:02;2.37;;;1.47;;
50968;SDS011;36982;51.474;7.228;2023-08-06T14:09:29;3.47;;;2.60;;
50968;SDS011;36982;51.474;7.228;2023-08-06T14:11:54;2.80;;;1.93;;
50968;SDS011;36982;51.474;7.228;2023-08-06T14:14:20;3.30;;;2.20;;
50968;SDS011;36982;51.474;7.228;2023-08-06T14:16:51;4.53;;;2.30;;
50968;SDS011;36982;51.474;7.228;2023-08-06T14:19:17;2.83;;;2.10;;
50968;SDS011;36982;51.474;7.228;2023-08-06T14:21:42;5.23;;;2.97;;
50968;SDS011;36982;51.474;7.228;2023-08-06T14:24:08;5.93;;;3.73;;
50968;SDS011;36982;51.474;7.228;2023-08-06T14:26:34;5.47;;;3.77;;
50968;SDS011;36982;51.474;7.228;2023-08-06T14:29:00;3.97;;;3.30;;
50968;SDS011;36982;51.474;7.228;2023-08-06T14:31:26;4.80;;;3.00;;
50968;SDS011;36982;51.474;7.228;2023-08-06T14:33:52;5.20;;;3.77;;
50968;SDS011;36982;51.474;7.228;2023-08-06T14:36:17;4.40;;;3.50;;
50968;SDS011;36982;51.474;7.228;2023-08-06T14:38:43;5.10;;;3.73;;
50968;SDS011;36982;51.474;7.228;2023-08-06T14:41:09;5.10;;;2.90;;
50968;SDS011;36982;51.474;7.228;2023-08-06T14:43:34;3.93;;;2.53;;
50968;SDS011;36982;51.474;7.228;2023-08-06T14:46:00;4.90;;;2.83;;
50968;SDS011;36982;51.474;7.228;2023-08-06T14:48:25;4.07;;;2.50;;
50968;SDS011;36982;51.474;7.228;2023-08-06T14:50:51;4.83;;;2.33;;
50968;SDS011;36982;51.474;7.228;2023-08-06T14:53:17;5.43;;;3.50;;
50968;SDS011;36982;51.474;7.228;2023-08-06T14:55:42;4.83;;;3.03;;
50968;SDS011;36982;51.474;7.228;2023-08-06T14:58:08;4.00;;;2.80;;
50968;SDS011;36982;51.474;7.228;2023-08-06T15:00:33;4.50;;;2.93;;
50968;SDS011;36982;51.474;7.228;2023-08-06T15:02:59;6.63;;;3.50;;
50968;SDS011;36982;51.474;7.228;2023-08-06T15:05:25;4.63;;;3.03;;